sensor_id;sensor_type;location;lat;lon;timestamp;P1;durP1;ratioP1;P2;durP2;ratioP2
10100;SDS011;5090;51.258;4.436;2023-02-15T00:01:05;67.40;;;37.13;;
10100;SDS011;5090;51.258;4.436;2023-02-15T00:03:32;66.60;;;36.73;;
10100;SDS011;5090;51.258;4.436;2023-02-15T00:06:01;66.67;;;36.77;;
10100;SDS011;5090;51.258;4.436;2023-02-15T00:08:29;60.90;;;35.77;;
10100;SDS011;5090;51.258;4.436;2023-02-15T00:11:06;79.50;;;41.00;;
10100;SDS011;5090;51.258;4.436;2023-02-15T00:13:34;66.93;;;36.83;;
10100;SDS011;5090;51.258;4.436;2023-02-15T00:16:03;65.50;;;35.83;;
10100;SDS011;5090;51.258;4.436;2023-02-15T00:18:31;65.80;;;37.00;;
10100;SDS011;5090;51.258;4.436;2023-02-15T00:21:03;74.03;;;37.93;;
10100;SDS011;5090;51.258;4.436;2023-02-15T00:23:27;65.33;;;36.93;;
10100;SDS011;5090;51.258;4.436;2023-02-15T00:28:30;70.20;;;36.83;;
10100;SDS011;5090;51.258;4.436;2023-02-15T00:31:04;60.57;;;35.63;;
10100;SDS011;5090;51.258;4.436;2023-02-15T00:33:31;74.33;;;38.90;;
10100;SDS011;5090;51.258;4.436;2023-02-15T00:35:59;67.77;;;36.07;;
10100;SDS011;5090;51.258;4.436;2023-02-15T00:38:28;66.07;;;37.33;;
10100;SDS011;5090;51.258;4.436;2023-02-15T00:40:56;64.50;;;34.53;;
10100;SDS011;5090;51.258;4.436;2023-02-15T00:43:24;70.93;;;39.93;;
10100;SDS011;5090;51.258;4.436;2023-02-15T00:45:52;62.37;;;36.77;;
10100;SDS011;5090;51.258;4.436;2023-02-15T00:48:20;69.73;;;38.73;;
10100;SDS011;5090;51.258;4.436;2023-02-15T00:50:49;68.77;;;38.20;;
10100;SDS011;5090;51.258;4.436;2023-02-15T00:53:17;72.13;;;39.30;;
10100;SDS011;5090;51.258;4.436;2023-02-15T00:55:45;65.37;;;37.17;;
10100;SDS011;5090;51.258;4.436;2023-02-15T00:58:13;71.43;;;37.60;;
10100;SDS011;5090;51.258;4.436;2023-02-15T01:00:42;61.47;;;36.43;;
10100;SDS011;5090;51.258;4.436;2023-02-15T01:03:11;65.40;;;36.30;;
10100;SDS011;5090;51.258;4.436;2023-02-15T01:05:38;69.60;;;38.63;;
10100;SDS011;5090;51.258;4.436;2023-02-15T01:08:07;68.80;;;38.90;;
10100;SDS011;5090;51.258;4.436;2023-02-15T01:10:35;71.10;;;38.27;;
10100;SDS011;5090;51.258;4.436;2023-02-15T01:13:03;65.40;;;36.27;;
10100;SDS011;5090;51.258;4.436;2023-02-15T01:15:33;72.57;;;38.47;;
10100;SDS011;5090;51.258;4.436;2023-02-15T01:17:59;64.10;;;37.23;;
10100;SDS011;5090;51.258;4.436;2023-02-15T01:20:28;65.33;;;37.97;;
10100;SDS011;5090;51.258;4.436;2023-02-15T01:22:56;70.63;;;37.80;;
10100;SDS011;5090;51.258;4.436;2023-02-15T01:25:24;63.83;;;36.90;;
10100;SDS011;5090;51.258;4.436;2023-02-15T01:27:52;66.57;;;36.40;;
10100;SDS011;5090;51.258;4.436;2023-02-15T01:30:20;56.40;;;35.00;;
10100;SDS011;5090;51.258;4.436;2023-02-15T01:32:48;65.93;;;36.37;;
10100;SDS011;5090;51.258;4.436;2023-02-15T01:35:17;69.00;;;36.33;;
10100;SDS011;5090;51.258;4.436;2023-02-15T01:37:45;64.17;;;35.57;;
10100;SDS011;5090;51.258;4.436;2023-02-15T01:40:14;62.60;;;36.77;;
10100;SDS011;5090;51.258;4.436;2023-02-15T01:42:41;62.67;;;36.73;;
10100;SDS011;5090;51.258;4.436;2023-02-15T01:47:45;67.37;;;36.70;;
10100;SDS011;5090;51.258;4.436;2023-02-15T01:50:13;59.17;;;37.00;;
10100;SDS011;5090;51.258;4.436;2023-02-15T01:52:42;63.67;;;34.67;;
10100;SDS011;5090;51.258;4.436;2023-02-15T01:55:08;65.97;;;37.90;;
10100;SDS011;5090;51.258;4.436;2023-02-15T01:57:37;63.00;;;36.67;;
10100;SDS011;5090;51.258;4.436;2023-02-15T02:00:05;60.50;;;35.07;;
10100;SDS011;5090;51.258;4.436;2023-02-15T02:02:34;67.17;;;36.03;;
10100;SDS011;5090;51.258;4.436;2023-02-15T02:05:02;65.87;;;37.20;;
10100;SDS011;5090;51.258;4.436;2023-02-15T02:07:31;69.60;;;36.40;;
10100;SDS011;5090;51.258;4.436;2023-02-15T02:09:58;68.90;;;37.33;;
10100;SDS011;5090;51.258;4.436;2023-02-15T02:12:28;63.60;;;36.07;;
10100;SDS011;5090;51.258;4.436;2023-02-15T02:14:57;64.07;;;36.30;;
10100;SDS011;5090;51.258;4.436;2023-02-15T02:17:34;62.73;;;35.77;;
10100;SDS011;5090;51.258;4.436;2023-02-15T02:25:22;61.70;;;37.03;;
10100;SDS011;5090;51.258;4.436;2023-02-15T02:35:33;80.90;;;41.87;;
10100;SDS011;5090;51.258;4.436;2023-02-15T02:38:03;76.23;;;41.27;;
10100;SDS011;5090;51.258;4.436;2023-02-15T02:40:34;86.80;;;42.80;;
10100;SDS011;5090;51.258;4.436;2023-02-15T02:43:01;83.30;;;43.33;;
10100;SDS011;5090;51.258;4.436;2023-02-15T02:45:31;78.00;;;42.10;;
10100;SDS011;5090;51.258;4.436;2023-02-15T02:47:59;89.67;;;45.60;;
10100;SDS011;5090;51.258;4.436;2023-02-15T02:50:26;93.17;;;46.23;;
10100;SDS011;5090;51.258;4.436;2023-02-15T02:52:55;92.43;;;46.60;;
10100;SDS011;5090;51.258;4.436;2023-02-15T02:55:24;86.40;;;46.60;;
10100;SDS011;5090;51.258;4.436;2023-02-15T02:57:52;88.70;;;46.03;;
10100;SDS011;5090;51.258;4.436;2023-02-15T03:00:20;88.97;;;45.63;;
10100;SDS011;5090;51.258;4.436;2023-02-15T03:02:47;93.77;;;46.13;;
10100;SDS011;5090;51.258;4.436;2023-02-15T03:05:16;88.73;;;44.47;;
10100;SDS011;5090;51.258;4.436;2023-02-15T03:07:45;81.93;;;42.87;;
10100;SDS011;5090;51.258;4.436;2023-02-15T03:10:12;90.50;;;44.83;;
10100;SDS011;5090;51.258;4.436;2023-02-15T03:12:40;84.80;;;46.10;;
10100;SDS011;5090;51.258;4.436;2023-02-15T03:15:12;86.47;;;44.57;;
10100;SDS011;5090;51.258;4.436;2023-02-15T03:17:40;92.17;;;47.33;;
10100;SDS011;5090;51.258;4.436;2023-02-15T03:20:18;79.20;;;43.37;;
10100;SDS011;5090;51.258;4.436;2023-02-15T03:22:48;76.60;;;42.07;;
10100;SDS011;5090;51.258;4.436;2023-02-15T03:25:21;76.00;;;41.97;;
10100;SDS011;5090;51.258;4.436;2023-02-15T03:27:49;79.03;;;43.80;;
10100;SDS011;5090;51.258;4.436;2023-02-15T03:30:17;81.80;;;42.47;;
10100;SDS011;5090;51.258;4.436;2023-02-15T03:32:45;75.10;;;43.57;;
10100;SDS011;5090;51.258;4.436;2023-02-15T03:35:13;85.17;;;44.20;;
10100;SDS011;5090;51.258;4.436;2023-02-15T03:37:43;87.83;;;44.30;;
10100;SDS011;5090;51.258;4.436;2023-02-15T03:40:11;85.60;;;42.83;;
10100;SDS011;5090;51.258;4.436;2023-02-15T03:42:45;93.70;;;44.57;;
10100;SDS011;5090;51.258;4.436;2023-02-15T03:45:14;92.07;;;44.97;;
10100;SDS011;5090;51.258;4.436;2023-02-15T03:47:42;75.33;;;42.20;;
10100;SDS011;5090;51.258;4.436;2023-02-15T03:50:12;92.40;;;45.67;;
10100;SDS011;5090;51.258;4.436;2023-02-15T03:52:44;81.30;;;44.30;;
10100;SDS011;5090;51.258;4.436;2023-02-15T03:55:14;89.53;;;46.27;;
10100;SDS011;5090;51.258;4.436;2023-02-15T03:57:42;93.60;;;46.17;;
10100;SDS011;5090;51.258;4.436;2023-02-15T04:00:21;83.90;;;47.27;;
10100;SDS011;5090;51.258;4.436;2023-02-15T04:05:27;80.70;;;45.37;;
10100;SDS011;5090;51.258;4.436;2023-02-15T04:07:55;79.30;;;41.43;;
10100;SDS011;5090;51.258;4.436;2023-02-15T04:10:23;81.37;;;43.37;;
10100;SDS011;5090;51.258;4.436;2023-02-15T04:12:57;90.67;;;44.70;;
10100;SDS011;5090;51.258;4.436;2023-02-15T04:15:25;82.73;;;44.47;;
10100;SDS011;5090;51.258;4.436;2023-02-15T04:18:01;86.67;;;44.30;;
10100;SDS011;5090;51.258;4.436;2023-02-15T04:20:28;88.00;;;45.07;;
10100;SDS011;5090;51.258;4.436;2023-02-15T04:23:05;90.67;;;45.50;;
10100;SDS011;5090;51.258;4.436;2023-02-15T04:25:36;88.27;;;45.40;;
10100;SDS011;5090;51.258;4.436;2023-02-15T04:28:04;94.57;;;45.03;;
10100;SDS011;5090;51.258;4.436;2023-02-15T04:30:33;85.57;;;44.17;;
10100;SDS011;5090;51.258;4.436;2023-02-15T04:33:01;91.93;;;44.63;;
10100;SDS011;5090;51.258;4.436;2023-02-15T04:35:29;83.53;;;44.43;;
10100;SDS011;5090;51.258;4.436;2023-02-15T04:37:57;90.50;;;44.23;;
10100;SDS011;5090;51.258;4.436;2023-02-15T04:40:25;85.70;;;45.00;;
10100;SDS011;5090;51.258;4.436;2023-02-15T04:42:54;79.20;;;44.13;;
10100;SDS011;5090;51.258;4.436;2023-02-15T04:45:22;76.80;;;42.10;;
10100;SDS011;5090;51.258;4.436;2023-02-15T04:47:50;83.50;;;43.77;;
10100;SDS011;5090;51.258;4.436;2023-02-15T04:50:19;84.23;;;42.50;;
10100;SDS011;5090;51.258;4.436;2023-02-15T04:52:47;83.17;;;43.03;;
10100;SDS011;5090;51.258;4.436;2023-02-15T04:55:15;77.63;;;41.50;;
10100;SDS011;5090;51.258;4.436;2023-02-15T04:57:44;81.03;;;42.23;;
10100;SDS011;5090;51.258;4.436;2023-02-15T05:00:12;82.37;;;45.70;;
10100;SDS011;5090;51.258;4.436;2023-02-15T05:02:40;93.90;;;44.93;;
10100;SDS011;5090;51.258;4.436;2023-02-15T05:05:08;83.37;;;43.00;;
10100;SDS011;5090;51.258;4.436;2023-02-15T05:07:37;81.77;;;43.37;;
10100;SDS011;5090;51.258;4.436;2023-02-15T05:10:05;87.93;;;44.20;;
10100;SDS011;5090;51.258;4.436;2023-02-15T05:12:33;78.33;;;43.10;;
10100;SDS011;5090;51.258;4.436;2023-02-15T05:15:02;83.13;;;44.80;;
10100;SDS011;5090;51.258;4.436;2023-02-15T05:17:30;82.63;;;43.80;;
10100;SDS011;5090;51.258;4.436;2023-02-15T05:19:58;84.23;;;45.43;;
10100;SDS011;5090;51.258;4.436;2023-02-15T05:22:26;82.00;;;43.03;;
10100;SDS011;5090;51.258;4.436;2023-02-15T05:24:54;88.97;;;45.10;;
10100;SDS011;5090;51.258;4.436;2023-02-15T05:27:28;94.10;;;45.43;;
10100;SDS011;5090;51.258;4.436;2023-02-15T05:30:03;88.20;;;43.53;;
10100;SDS011;5090;51.258;4.436;2023-02-15T05:32:31;90.13;;;45.00;;
10100;SDS011;5090;51.258;4.436;2023-02-15T05:34:59;91.53;;;45.00;;
10100;SDS011;5090;51.258;4.436;2023-02-15T05:37:27;97.53;;;48.10;;
10100;SDS011;5090;51.258;4.436;2023-02-15T05:39:56;88.57;;;45.60;;
10100;SDS011;5090;51.258;4.436;2023-02-15T05:42:24;99.20;;;46.97;;
10100;SDS011;5090;51.258;4.436;2023-02-15T05:44:52;86.73;;;45.67;;
10100;SDS011;5090;51.258;4.436;2023-02-15T05:47:20;92.50;;;46.30;;
10100;SDS011;5090;51.258;4.436;2023-02-15T05:49:48;97.23;;;45.17;;
10100;SDS011;5090;51.258;4.436;2023-02-15T05:52:17;92.57;;;44.77;;
10100;SDS011;5090;51.258;4.436;2023-02-15T05:54:45;102.90;;;46.43;;
10100;SDS011;5090;51.258;4.436;2023-02-15T05:57:14;87.27;;;43.57;;
10100;SDS011;5090;51.258;4.436;2023-02-15T05:59:42;96.83;;;45.47;;
10100;SDS011;5090;51.258;4.436;2023-02-15T06:02:10;88.10;;;44.43;;
10100;SDS011;5090;51.258;4.436;2023-02-15T06:04:38;89.80;;;46.53;;
10100;SDS011;5090;51.258;4.436;2023-02-15T06:07:06;91.77;;;44.37;;
10100;SDS011;5090;51.258;4.436;2023-02-15T06:09:34;94.90;;;45.73;;
10100;SDS011;5090;51.258;4.436;2023-02-15T06:12:03;100.67;;;46.70;;
10100;SDS011;5090;51.258;4.436;2023-02-15T06:14:32;88.67;;;45.30;;
10100;SDS011;5090;51.258;4.436;2023-02-15T06:17:01;85.83;;;44.00;;
10100;SDS011;5090;51.258;4.436;2023-02-15T06:19:29;88.30;;;45.73;;
10100;SDS011;5090;51.258;4.436;2023-02-15T06:21:57;96.83;;;46.93;;
10100;SDS011;5090;51.258;4.436;2023-02-15T06:24:25;116.80;;;59.50;;
10100;SDS011;5090;51.258;4.436;2023-02-15T06:26:53;100.57;;;48.77;;
10100;SDS011;5090;51.258;4.436;2023-02-15T06:29:22;97.53;;;46.40;;
10100;SDS011;5090;51.258;4.436;2023-02-15T06:31:50;93.27;;;46.13;;
10100;SDS011;5090;51.258;4.436;2023-02-15T06:34:18;96.33;;;44.43;;
10100;SDS011;5090;51.258;4.436;2023-02-15T06:36:46;89.00;;;44.83;;
10100;SDS011;5090;51.258;4.436;2023-02-15T06:39:14;88.53;;;44.87;;
10100;SDS011;5090;51.258;4.436;2023-02-15T06:41:42;89.40;;;43.67;;
10100;SDS011;5090;51.258;4.436;2023-02-15T06:44:11;94.67;;;44.97;;
10100;SDS011;5090;51.258;4.436;2023-02-15T06:46:39;91.27;;;45.10;;
10100;SDS011;5090;51.258;4.436;2023-02-15T06:49:07;79.03;;;42.80;;
10100;SDS011;5090;51.258;4.436;2023-02-15T06:51:35;83.57;;;43.63;;
10100;SDS011;5090;51.258;4.436;2023-02-15T06:54:03;96.97;;;45.73;;
10100;SDS011;5090;51.258;4.436;2023-02-15T06:56:32;97.07;;;45.43;;
10100;SDS011;5090;51.258;4.436;2023-02-15T06:59:00;87.07;;;46.63;;
10100;SDS011;5090;51.258;4.436;2023-02-15T07:01:28;101.47;;;46.33;;
10100;SDS011;5090;51.258;4.436;2023-02-15T07:03:57;93.07;;;45.63;;
10100;SDS011;5090;51.258;4.436;2023-02-15T07:06:25;82.40;;;42.97;;
10100;SDS011;5090;51.258;4.436;2023-02-15T07:08:53;87.53;;;44.77;;
10100;SDS011;5090;51.258;4.436;2023-02-15T07:11:21;90.73;;;43.57;;
10100;SDS011;5090;51.258;4.436;2023-02-15T07:14:09;84.93;;;43.00;;
10100;SDS011;5090;51.258;4.436;2023-02-15T07:16:37;85.53;;;44.40;;
10100;SDS011;5090;51.258;4.436;2023-02-15T07:19:05;92.10;;;44.53;;
10100;SDS011;5090;51.258;4.436;2023-02-15T07:21:34;99.90;;;46.20;;
10100;SDS011;5090;51.258;4.436;2023-02-15T07:24:02;89.17;;;45.47;;
10100;SDS011;5090;51.258;4.436;2023-02-15T07:26:31;89.30;;;43.50;;
10100;SDS011;5090;51.258;4.436;2023-02-15T07:28:59;92.77;;;44.23;;
10100;SDS011;5090;51.258;4.436;2023-02-15T07:31:28;81.90;;;44.63;;
10100;SDS011;5090;51.258;4.436;2023-02-15T07:33:56;89.13;;;44.73;;
10100;SDS011;5090;51.258;4.436;2023-02-15T07:36:24;86.00;;;43.53;;
10100;SDS011;5090;51.258;4.436;2023-02-15T07:38:52;88.17;;;44.70;;
10100;SDS011;5090;51.258;4.436;2023-02-15T07:41:20;78.53;;;43.43;;
10100;SDS011;5090;51.258;4.436;2023-02-15T07:43:49;86.03;;;44.43;;
10100;SDS011;5090;51.258;4.436;2023-02-15T07:46:17;85.57;;;43.60;;
10100;SDS011;5090;51.258;4.436;2023-02-15T07:48:45;76.00;;;41.97;;
10100;SDS011;5090;51.258;4.436;2023-02-15T07:51:14;89.63;;;44.17;;
10100;SDS011;5090;51.258;4.436;2023-02-15T07:53:41;83.60;;;42.27;;
10100;SDS011;5090;51.258;4.436;2023-02-15T07:56:11;90.77;;;44.73;;
10100;SDS011;5090;51.258;4.436;2023-02-15T07:58:38;84.57;;;43.50;;
10100;SDS011;5090;51.258;4.436;2023-02-15T08:01:13;78.30;;;43.13;;
10100;SDS011;5090;51.258;4.436;2023-02-15T08:03:40;83.83;;;43.50;;
10100;SDS011;5090;51.258;4.436;2023-02-15T08:06:08;80.53;;;42.07;;
10100;SDS011;5090;51.258;4.436;2023-02-15T08:08:37;81.13;;;42.90;;
10100;SDS011;5090;51.258;4.436;2023-02-15T08:11:13;66.03;;;39.57;;
10100;SDS011;5090;51.258;4.436;2023-02-15T08:13:41;74.23;;;39.53;;
10100;SDS011;5090;51.258;4.436;2023-02-15T08:16:08;82.37;;;41.63;;
10100;SDS011;5090;51.258;4.436;2023-02-15T08:18:36;74.30;;;41.97;;
10100;SDS011;5090;51.258;4.436;2023-02-15T08:21:04;68.33;;;40.20;;
10100;SDS011;5090;51.258;4.436;2023-02-15T08:23:32;69.63;;;39.87;;
10100;SDS011;5090;51.258;4.436;2023-02-15T08:26:01;66.23;;;37.17;;
10100;SDS011;5090;51.258;4.436;2023-02-15T08:28:29;67.47;;;37.13;;
10100;SDS011;5090;51.258;4.436;2023-02-15T08:33:31;61.43;;;35.60;;
10100;SDS011;5090;51.258;4.436;2023-02-15T08:36:03;63.43;;;36.33;;
10100;SDS011;5090;51.258;4.436;2023-02-15T08:38:30;61.80;;;36.60;;
10100;SDS011;5090;51.258;4.436;2023-02-15T08:41:31;58.57;;;35.23;;
10100;SDS011;5090;51.258;4.436;2023-02-15T08:43:42;58.90;;;34.67;;
10100;SDS011;5090;51.258;4.436;2023-02-15T08:46:10;59.60;;;35.13;;
10100;SDS011;5090;51.258;4.436;2023-02-15T08:48:38;60.53;;;34.53;;
10100;SDS011;5090;51.258;4.436;2023-02-15T08:51:10;58.20;;;35.30;;
10100;SDS011;5090;51.258;4.436;2023-02-15T08:53:39;62.27;;;35.77;;
10100;SDS011;5090;51.258;4.436;2023-02-15T08:56:06;58.93;;;34.67;;
10100;SDS011;5090;51.258;4.436;2023-02-15T08:58:34;58.67;;;33.30;;
10100;SDS011;5090;51.258;4.436;2023-02-15T09:01:09;72.30;;;34.23;;
10100;SDS011;5090;51.258;4.436;2023-02-15T09:03:37;56.50;;;33.43;;
10100;SDS011;5090;51.258;4.436;2023-02-15T09:06:05;56.83;;;31.63;;
10100;SDS011;5090;51.258;4.436;2023-02-15T09:08:33;53.47;;;31.23;;
10100;SDS011;5090;51.258;4.436;2023-02-15T09:11:08;54.30;;;32.67;;
10100;SDS011;5090;51.258;4.436;2023-02-15T09:13:34;61.53;;;31.93;;
10100;SDS011;5090;51.258;4.436;2023-02-15T09:16:04;51.70;;;32.13;;
10100;SDS011;5090;51.258;4.436;2023-02-15T09:18:32;59.63;;;31.10;;
10100;SDS011;5090;51.258;4.436;2023-02-15T09:21:07;46.77;;;30.27;;
10100;SDS011;5090;51.258;4.436;2023-02-15T09:23:35;52.87;;;31.60;;
10100;SDS011;5090;51.258;4.436;2023-02-15T09:26:04;53.83;;;31.03;;
10100;SDS011;5090;51.258;4.436;2023-02-15T09:28:31;53.47;;;30.17;;
10100;SDS011;5090;51.258;4.436;2023-02-15T09:31:09;56.83;;;31.53;;
10100;SDS011;5090;51.258;4.436;2023-02-15T09:33:38;56.17;;;32.30;;
10100;SDS011;5090;51.258;4.436;2023-02-15T09:36:12;55.47;;;30.17;;
10100;SDS011;5090;51.258;4.436;2023-02-15T09:38:34;49.70;;;30.10;;
10100;SDS011;5090;51.258;4.436;2023-02-15T09:41:09;54.27;;;30.60;;
10100;SDS011;5090;51.258;4.436;2023-02-15T09:43:37;53.70;;;31.83;;
10100;SDS011;5090;51.258;4.436;2023-02-15T09:46:06;49.27;;;30.43;;
10100;SDS011;5090;51.258;4.436;2023-02-15T09:48:34;45.93;;;29.73;;
10100;SDS011;5090;51.258;4.436;2023-02-15T09:52:12;56.10;;;30.03;;
10100;SDS011;5090;51.258;4.436;2023-02-15T09:53:50;57.67;;;30.40;;
10100;SDS011;5090;51.258;4.436;2023-02-15T09:56:18;52.80;;;29.20;;
10100;SDS011;5090;51.258;4.436;2023-02-15T09:59:19;46.10;;;26.60;;
10100;SDS011;5090;51.258;4.436;2023-02-15T10:01:33;46.93;;;27.37;;
10100;SDS011;5090;51.258;4.436;2023-02-15T10:06:50;43.73;;;25.33;;
10100;SDS011;5090;51.258;4.436;2023-02-15T10:09:48;42.80;;;25.20;;
10100;SDS011;5090;51.258;4.436;2023-02-15T10:12:05;52.43;;;25.70;;
10100;SDS011;5090;51.258;4.436;2023-02-15T10:17:18;44.33;;;26.03;;
10100;SDS011;5090;51.258;4.436;2023-02-15T10:19:46;44.83;;;26.23;;
10100;SDS011;5090;51.258;4.436;2023-02-15T10:22:23;45.20;;;26.33;;
10100;SDS011;5090;51.258;4.436;2023-02-15T10:24:51;45.17;;;26.13;;
10100;SDS011;5090;51.258;4.436;2023-02-15T10:27:18;51.13;;;25.60;;
10100;SDS011;5090;51.258;4.436;2023-02-15T10:29:52;43.83;;;25.43;;
10100;SDS011;5090;51.258;4.436;2023-02-15T10:32:20;44.07;;;24.23;;
10100;SDS011;5090;51.258;4.436;2023-02-15T10:34:50;40.53;;;24.37;;
10100;SDS011;5090;51.258;4.436;2023-02-15T10:37:21;38.13;;;23.83;;
10100;SDS011;5090;51.258;4.436;2023-02-15T10:45:12;39.43;;;23.23;;
10100;SDS011;5090;51.258;4.436;2023-02-15T10:47:41;43.70;;;24.17;;
10100;SDS011;5090;51.258;4.436;2023-02-15T10:50:12;43.47;;;24.63;;
10100;SDS011;5090;51.258;4.436;2023-02-15T10:52:45;41.50;;;24.43;;
10100;SDS011;5090;51.258;4.436;2023-02-15T10:55:18;43.70;;;23.50;;
10100;SDS011;5090;51.258;4.436;2023-02-15T10:57:54;48.47;;;25.13;;
10100;SDS011;5090;51.258;4.436;2023-02-15T11:00:27;44.23;;;24.97;;
10100;SDS011;5090;51.258;4.436;2023-02-15T11:03:02;46.17;;;25.63;;
10100;SDS011;5090;51.258;4.436;2023-02-15T11:05:35;42.10;;;23.90;;
10100;SDS011;5090;51.258;4.436;2023-02-15T11:08:02;43.33;;;23.53;;
10100;SDS011;5090;51.258;4.436;2023-02-15T11:10:31;46.37;;;25.63;;
10100;SDS011;5090;51.258;4.436;2023-02-15T11:13:01;40.70;;;24.17;;
10100;SDS011;5090;51.258;4.436;2023-02-15T11:15:30;42.17;;;23.43;;
10100;SDS011;5090;51.258;4.436;2023-02-15T11:17:59;42.87;;;25.17;;
10100;SDS011;5090;51.258;4.436;2023-02-15T11:20:28;43.53;;;24.23;;
10100;SDS011;5090;51.258;4.436;2023-02-15T11:22:53;38.50;;;23.50;;
10100;SDS011;5090;51.258;4.436;2023-02-15T11:25:25;42.97;;;23.23;;
10100;SDS011;5090;51.258;4.436;2023-02-15T11:27:52;42.50;;;24.97;;
10100;SDS011;5090;51.258;4.436;2023-02-15T11:30:21;40.03;;;23.37;;
10100;SDS011;5090;51.258;4.436;2023-02-15T11:32:49;39.53;;;23.50;;
10100;SDS011;5090;51.258;4.436;2023-02-15T11:35:19;42.00;;;23.60;;
10100;SDS011;5090;51.258;4.436;2023-02-15T11:37:48;39.83;;;24.03;;
10100;SDS011;5090;51.258;4.436;2023-02-15T11:40:20;47.97;;;24.07;;
10100;SDS011;5090;51.258;4.436;2023-02-15T11:42:47;43.10;;;24.67;;
10100;SDS011;5090;51.258;4.436;2023-02-15T11:45:19;41.60;;;23.73;;
10100;SDS011;5090;51.258;4.436;2023-02-15T11:47:46;43.87;;;24.03;;
10100;SDS011;5090;51.258;4.436;2023-02-15T11:50:15;43.00;;;23.40;;
10100;SDS011;5090;51.258;4.436;2023-02-15T11:52:42;43.87;;;24.03;;
10100;SDS011;5090;51.258;4.436;2023-02-15T11:55:12;38.57;;;24.00;;
10100;SDS011;5090;51.258;4.436;2023-02-15T11:57:41;43.13;;;23.80;;
10100;SDS011;5090;51.258;4.436;2023-02-15T12:00:24;44.93;;;24.33;;
10100;SDS011;5090;51.258;4.436;2023-02-15T12:02:52;42.07;;;24.47;;
10100;SDS011;5090;51.258;4.436;2023-02-15T12:05:20;42.70;;;23.73;;
10100;SDS011;5090;51.258;4.436;2023-02-15T12:07:52;41.60;;;23.10;;
10100;SDS011;5090;51.258;4.436;2023-02-15T12:10:22;42.13;;;23.63;;
10100;SDS011;5090;51.258;4.436;2023-02-15T12:12:49;41.00;;;23.50;;
10100;SDS011;5090;51.258;4.436;2023-02-15T12:15:17;37.73;;;22.93;;
10100;SDS011;5090;51.258;4.436;2023-02-15T12:17:49;40.30;;;23.80;;
10100;SDS011;5090;51.258;4.436;2023-02-15T12:20:24;42.03;;;23.53;;
10100;SDS011;5090;51.258;4.436;2023-02-15T12:22:59;38.67;;;23.57;;
10100;SDS011;5090;51.258;4.436;2023-02-15T12:25:34;41.07;;;23.10;;
10100;SDS011;5090;51.258;4.436;2023-02-15T12:28:01;43.17;;;22.10;;
10100;SDS011;5090;51.258;4.436;2023-02-15T12:30:32;41.97;;;22.93;;
10100;SDS011;5090;51.258;4.436;2023-02-15T12:33:04;39.63;;;23.80;;
10100;SDS011;5090;51.258;4.436;2023-02-15T12:35:33;40.87;;;21.83;;
10100;SDS011;5090;51.258;4.436;2023-02-15T12:38:04;42.93;;;22.83;;
10100;SDS011;5090;51.258;4.436;2023-02-15T12:40:32;44.13;;;24.03;;
10100;SDS011;5090;51.258;4.436;2023-02-15T12:42:59;44.47;;;23.73;;
10100;SDS011;5090;51.258;4.436;2023-02-15T12:45:29;43.57;;;23.93;;
10100;SDS011;5090;51.258;4.436;2023-02-15T12:50:30;36.57;;;23.27;;
10100;SDS011;5090;51.258;4.436;2023-02-15T12:53:18;41.50;;;24.10;;
10100;SDS011;5090;51.258;4.436;2023-02-15T12:55:49;40.63;;;23.80;;
10100;SDS011;5090;51.258;4.436;2023-02-15T12:58:18;44.47;;;24.57;;
10100;SDS011;5090;51.258;4.436;2023-02-15T13:00:45;41.67;;;24.27;;
10100;SDS011;5090;51.258;4.436;2023-02-15T13:03:18;40.20;;;23.03;;
10100;SDS011;5090;51.258;4.436;2023-02-15T13:05:46;43.40;;;24.13;;
10100;SDS011;5090;51.258;4.436;2023-02-15T13:08:15;44.57;;;22.47;;
10100;SDS011;5090;51.258;4.436;2023-02-15T13:13:17;42.90;;;24.50;;
10100;SDS011;5090;51.258;4.436;2023-02-15T13:15:46;44.87;;;23.37;;
10100;SDS011;5090;51.258;4.436;2023-02-15T13:18:19;42.33;;;23.50;;
10100;SDS011;5090;51.258;4.436;2023-02-15T13:20:45;45.50;;;24.17;;
10100;SDS011;5090;51.258;4.436;2023-02-15T13:23:23;43.63;;;24.50;;
10100;SDS011;5090;51.258;4.436;2023-02-15T13:25:51;43.67;;;23.60;;
10100;SDS011;5090;51.258;4.436;2023-02-15T13:28:20;38.83;;;22.10;;
10100;SDS011;5090;51.258;4.436;2023-02-15T13:30:48;39.87;;;23.27;;
10100;SDS011;5090;51.258;4.436;2023-02-15T13:35:56;41.87;;;23.33;;
10100;SDS011;5090;51.258;4.436;2023-02-15T13:38:27;41.73;;;23.23;;
10100;SDS011;5090;51.258;4.436;2023-02-15T13:40:53;42.70;;;23.07;;
10100;SDS011;5090;51.258;4.436;2023-02-15T13:43:24;41.00;;;22.77;;
10100;SDS011;5090;51.258;4.436;2023-02-15T13:46:09;39.60;;;23.50;;
10100;SDS011;5090;51.258;4.436;2023-02-15T13:48:38;46.37;;;23.97;;
10100;SDS011;5090;51.258;4.436;2023-02-15T13:51:06;43.53;;;25.53;;
10100;SDS011;5090;51.258;4.436;2023-02-15T13:53:36;40.60;;;24.17;;
10100;SDS011;5090;51.258;4.436;2023-02-15T13:56:24;41.47;;;24.53;;
10100;SDS011;5090;51.258;4.436;2023-02-15T13:58:56;39.50;;;24.00;;
10100;SDS011;5090;51.258;4.436;2023-02-15T14:01:31;42.63;;;25.17;;
10100;SDS011;5090;51.258;4.436;2023-02-15T14:04:05;42.17;;;24.87;;
10100;SDS011;5090;51.258;4.436;2023-02-15T14:07:39;43.37;;;25.50;;
10100;SDS011;5090;51.258;4.436;2023-02-15T14:09:17;45.20;;;24.53;;
10100;SDS011;5090;51.258;4.436;2023-02-15T14:11:44;40.50;;;24.57;;
10100;SDS011;5090;51.258;4.436;2023-02-15T14:14:15;44.67;;;25.73;;
10100;SDS011;5090;51.258;4.436;2023-02-15T14:19:25;44.17;;;27.80;;
10100;SDS011;5090;51.258;4.436;2023-02-15T14:21:58;39.50;;;24.83;;
10100;SDS011;5090;51.258;4.436;2023-02-15T14:24:27;43.30;;;24.73;;
10100;SDS011;5090;51.258;4.436;2023-02-15T14:26:56;38.90;;;24.23;;
10100;SDS011;5090;51.258;4.436;2023-02-15T14:29:38;36.60;;;22.80;;
10100;SDS011;5090;51.258;4.436;2023-02-15T14:32:05;43.50;;;24.63;;
10100;SDS011;5090;51.258;4.436;2023-02-15T14:34:42;48.63;;;23.70;;
10100;SDS011;5090;51.258;4.436;2023-02-15T14:37:05;52.10;;;24.93;;
10100;SDS011;5090;51.258;4.436;2023-02-15T14:39:52;40.97;;;24.13;;
10100;SDS011;5090;51.258;4.436;2023-02-15T14:42:31;43.00;;;24.53;;
10100;SDS011;5090;51.258;4.436;2023-02-15T14:45:01;42.50;;;24.23;;
10100;SDS011;5090;51.258;4.436;2023-02-15T14:47:29;44.53;;;24.77;;
10100;SDS011;5090;51.258;4.436;2023-02-15T14:49:56;46.50;;;24.97;;
10100;SDS011;5090;51.258;4.436;2023-02-15T14:52:24;38.23;;;23.33;;
10100;SDS011;5090;51.258;4.436;2023-02-15T14:54:53;45.43;;;24.97;;
10100;SDS011;5090;51.258;4.436;2023-02-15T14:57:21;37.20;;;23.80;;
10100;SDS011;5090;51.258;4.436;2023-02-15T14:59:52;41.57;;;24.80;;
10100;SDS011;5090;51.258;4.436;2023-02-15T15:02:21;46.80;;;25.10;;
10100;SDS011;5090;51.258;4.436;2023-02-15T15:04:55;42.83;;;23.30;;
10100;SDS011;5090;51.258;4.436;2023-02-15T15:07:25;42.23;;;25.27;;
10100;SDS011;5090;51.258;4.436;2023-02-15T15:10:00;39.10;;;24.43;;
10100;SDS011;5090;51.258;4.436;2023-02-15T15:12:36;42.30;;;24.73;;
10100;SDS011;5090;51.258;4.436;2023-02-15T15:15:05;45.93;;;23.70;;
10100;SDS011;5090;51.258;4.436;2023-02-15T15:22:50;43.47;;;23.97;;
10100;SDS011;5090;51.258;4.436;2023-02-15T15:25:51;33.63;;;21.60;;
10100;SDS011;5090;51.258;4.436;2023-02-15T15:28:01;44.60;;;24.00;;
10100;SDS011;5090;51.258;4.436;2023-02-15T15:31:02;41.43;;;23.23;;
10100;SDS011;5090;51.258;4.436;2023-02-15T15:33:22;44.00;;;24.37;;
10100;SDS011;5090;51.258;4.436;2023-02-15T15:42:12;39.47;;;24.70;;
10100;SDS011;5090;51.258;4.436;2023-02-15T15:43:55;44.53;;;24.60;;